Time;durP1;ratioP1;P1;durP2;ratioP2;P2;SDS_P1;SDS_P2;PMS_P1;PMS_P2;Temp;Humidity;BMP_temperature;BMP_pressure;BME280_temperature;BME280_humidity;BME280_pressure;Samples;Min_cycle;Max_cycle;Signal;HPM_P1;HPM_P2
2021/03/29 00:02:40;;;;;;;3.40;2.20;;;10.00;67.30;;;;;;10518474;28;20192;-78
2021/03/29 00:07:46;;;;;;;2.73;2.50;;;9.90;68.50;;;;;;10537051;28;20227;-78
2021/03/29 00:12:52;;;;;;;4.87;2.80;;;9.90;68.40;;;;;;10501654;28;20224;-79
2021/03/29 00:17:54;;;;;;;2.90;2.23;;;10.00;66.40;;;;;;10536314;28;20643;-80
2021/03/29 00:22:56;;;;;;;2.63;2.17;;;10.00;67.10;;;;;;10518218;28;20252;-78
2021/03/29 00:28:00;;;;;;;4.60;2.90;;;10.00;67.30;;;;;;10501350;28;20734;-78
2021/03/29 00:33:04;;;;;;;3.10;2.33;;;10.10;67.70;;;;;;10535006;28;20322;-79
2021/03/29 00:38:09;;;;;;;2.63;2.43;;;10.10;67.40;;;;;;10531487;28;20234;-78
2021/03/29 00:43:16;;;;;;;3.97;2.50;;;10.00;68.40;;;;;;10534501;28;20555;-78
2021/03/29 00:48:20;;;;;;;2.97;2.67;;;10.10;67.80;;;;;;10502441;28;20221;-78
2021/03/29 00:53:24;;;;;;;6.63;2.80;;;10.10;68.00;;;;;;10494808;28;20222;-78
2021/03/29 00:58:31;;;;;;;3.27;2.97;;;10.10;67.50;;;;;;10533003;28;20195;-78
2021/03/29 01:03:35;;;;;;;2.87;2.50;;;10.00;67.40;;;;;;10508368;28;20191;-79
2021/03/29 01:08:41;;;;;;;2.73;2.50;;;10.00;68.00;;;;;;10526764;28;20195;-78
2021/03/29 01:13:48;;;;;;;7.33;2.77;;;9.90;69.40;;;;;;10521306;28;20219;-78
2021/03/29 01:18:56;;;;;;;3.10;2.80;;;9.90;69.40;;;;;;10514036;28;20318;-78
2021/03/29 01:24:04;;;;;;;3.67;2.80;;;9.90;69.30;;;;;;10531925;28;20215;-79
2021/03/29 01:29:07;;;;;;;5.20;3.57;;;9.80;69.50;;;;;;10511152;28;20202;-78
2021/03/29 01:34:11;;;;;;;3.30;2.50;;;9.80;68.90;;;;;;10495189;28;20314;-78
2021/03/29 01:39:14;;;;;;;4.17;2.80;;;9.80;69.60;;;;;;10531275;28;20200;-79
2021/03/29 01:44:18;;;;;;;3.10;2.40;;;9.70;69.50;;;;;;10533942;28;20630;-78
2021/03/29 01:49:21;;;;;;;3.20;2.00;;;9.70;69.40;;;;;;10532718;28;20249;-79
2021/03/29 01:54:23;;;;;;;2.80;2.50;;;9.60;69.80;;;;;;10514600;28;20701;-79
2021/03/29 01:59:26;;;;;;;3.20;2.53;;;9.50;69.70;;;;;;10532167;28;20281;-79
2021/03/29 02:04:29;;;;;;;2.97;2.70;;;9.50;69.90;;;;;;10531592;28;20232;-78
2021/03/29 02:09:31;;;;;;;3.07;2.47;;;9.40;70.00;;;;;;10514024;28;20199;-78
2021/03/29 02:14:35;;;;;;;2.70;2.50;;;9.30;69.80;;;;;;10513287;28;20766;-78
2021/03/29 02:19:37;;;;;;;8.07;2.97;;;9.30;70.40;;;;;;10525881;28;20284;-78
2021/03/29 02:24:39;;;;;;;3.13;2.70;;;9.30;70.20;;;;;;10513622;28;20690;-78
2021/03/29 02:29:42;;;;;;;2.67;2.40;;;9.20;70.20;;;;;;10502224;28;20282;-77
2021/03/29 02:34:43;;;;;;;3.43;2.50;;;9.20;70.30;;;;;;10520465;28;20222;-78
2021/03/29 02:39:45;;;;;;;2.60;2.33;;;9.10;69.80;;;;;;10518854;28;20278;-78
2021/03/29 02:44:48;;;;;;;2.97;2.77;;;9.10;70.70;;;;;;10537549;28;20269;-78
2021/03/29 02:49:50;;;;;;;5.63;2.87;;;9.00;70.90;;;;;;10521738;28;20279;-78
2021/03/29 02:54:53;;;;;;;3.00;2.80;;;9.00;70.90;;;;;;10532801;28;20227;-79
2021/03/29 02:59:56;;;;;;;5.40;2.70;;;9.00;71.00;;;;;;10520485;28;20208;-79
2021/03/29 03:04:58;;;;;;;2.93;2.73;;;8.90;71.70;;;;;;10536839;28;21739;-78
2021/03/29 03:10:00;;;;;;;3.77;2.67;;;8.90;71.50;;;;;;10518799;28;20264;-78
2021/03/29 03:15:05;;;;;;;2.93;2.60;;;8.80;71.40;;;;;;10554705;28;20228;-78
2021/03/29 03:20:09;;;;;;;3.30;2.83;;;8.80;71.60;;;;;;10536018;28;20207;-78
2021/03/29 03:25:18;;;;;;;3.47;3.27;;;8.80;71.70;;;;;;10546958;28;20715;-78
2021/03/29 03:30:26;;;;;;;5.00;3.27;;;8.70;71.50;;;;;;10534052;28;20197;-79
2021/03/29 03:35:29;;;;;;;3.13;2.60;;;8.70;71.40;;;;;;10545248;28;20219;-78
2021/03/29 03:40:31;;;;;;;3.93;2.73;;;8.70;71.30;;;;;;10535167;28;20263;-78
2021/03/29 03:45:37;;;;;;;3.40;3.10;;;8.70;71.20;;;;;;10533749;28;20294;-79
2021/03/29 03:50:39;;;;;;;3.60;2.67;;;8.60;71.70;;;;;;10516706;28;20723;-78
2021/03/29 03:55:42;;;;;;;4.27;3.10;;;8.60;72.10;;;;;;10535005;28;20250;-78
2021/03/29 04:00:44;;;;;;;3.30;2.83;;;8.50;72.80;;;;;;10529726;28;20246;-78
2021/03/29 04:05:46;;;;;;;3.00;2.80;;;8.50;71.90;;;;;;10510283;28;20216;-79
2021/03/29 04:10:50;;;;;;;3.00;2.70;;;8.50;71.90;;;;;;10537101;28;20204;-78
2021/03/29 04:15:52;;;;;;;3.60;2.57;;;8.40;71.80;;;;;;10516790;28;20301;-78
2021/03/29 04:20:55;;;;;;;3.20;2.90;;;8.40;72.20;;;;;;10534188;28;20204;-78
2021/03/29 04:25:58;;;;;;;3.30;3.10;;;8.30;72.20;;;;;;10536847;28;20246;-78
2021/03/29 04:31:00;;;;;;;3.47;2.70;;;8.30;72.00;;;;;;10541914;28;20204;-78
2021/03/29 04:36:02;;;;;;;3.40;3.10;;;8.30;72.40;;;;;;10542947;28;20359;-80
2021/03/29 04:41:05;;;;;;;3.00;2.27;;;8.40;72.30;;;;;;10513558;28;20664;-81
2021/03/29 04:46:08;;;;;;;3.50;3.00;;;8.40;72.20;;;;;;10536763;28;20729;-80
2021/03/29 04:51:10;;;;;;;2.60;2.50;;;8.50;72.40;;;;;;10554401;28;20232;-81
2021/03/29 04:56:11;;;;;;;4.20;2.60;;;8.60;72.10;;;;;;10521141;28;20719;-81
2021/03/29 05:01:14;;;;;;;3.20;2.90;;;8.60;72.30;;;;;;10518587;28;20207;-80
2021/03/29 05:06:15;;;;;;;5.93;2.73;;;8.70;72.40;;;;;;10536635;28;20310;-80
2021/03/29 05:11:17;;;;;;;4.57;3.10;;;8.70;72.80;;;;;;10518302;28;20290;-80
2021/03/29 05:16:19;;;;;;;4.30;3.90;;;8.70;73.10;;;;;;10518527;28;20227;-80
2021/03/29 05:21:21;;;;;;;4.90;3.80;;;8.80;73.00;;;;;;10518429;28;20578;-80
2021/03/29 05:26:23;;;;;;;4.87;3.87;;;8.80;73.50;;;;;;10574242;28;20219;-80
2021/03/29 05:31:26;;;;;;;7.50;3.70;;;8.90;73.00;;;;;;10534474;28;20220;-80
2021/03/29 05:36:27;;;;;;;5.47;4.40;;;9.00;73.20;;;;;;10549776;28;20590;-80
2021/03/29 05:41:29;;;;;;;7.97;3.83;;;9.10;73.00;;;;;;10548802;28;20249;-80
2021/03/29 05:46:32;;;;;;;4.20;2.97;;;9.20;73.30;;;;;;10549649;28;20230;-80
2021/03/29 05:51:36;;;;;;;4.13;3.30;;;9.30;73.00;;;;;;10570089;28;20232;-80
2021/03/29 05:56:40;;;;;;;7.67;3.70;;;9.30;73.00;;;;;;10568323;28;20710;-80
2021/03/29 06:01:44;;;;;;;4.83;3.97;;;9.30;73.10;;;;;;10550907;28;20195;-80
2021/03/29 06:06:46;;;;;;;3.73;3.40;;;9.40;72.80;;;;;;10547162;28;20222;-80
2021/03/29 06:11:50;;;;;;;4.97;3.60;;;9.50;72.70;;;;;;10551155;28;20698;-80
2021/03/29 06:16:57;;;;;;;6.70;3.67;;;9.50;72.60;;;;;;10547369;28;20254;-80
2021/03/29 06:22:07;;;;;;;5.07;3.67;;;9.50;73.00;;;;;;10544641;28;20212;-80
2021/03/29 06:27:08;;;;;;;4.67;3.93;;;9.60;72.60;;;;;;10527538;28;20227;-80
2021/03/29 06:32:11;;;;;;;3.70;3.40;;;9.70;72.60;;;;;;10528116;28;20195;-80
2021/03/29 06:37:13;;;;;;;8.63;3.67;;;9.90;72.70;;;;;;10544721;28;20245;-80
2021/03/29 06:42:15;;;;;;;4.70;3.93;;;10.20;70.90;;;;;;10543361;28;20726;-80
2021/03/29 06:47:19;;;;;;;3.83;3.50;;;10.50;70.70;;;;;;10560266;28;20678;-81
2021/03/29 06:52:22;;;;;;;6.67;3.97;;;10.70;68.70;;;;;;10531248;28;20667;-80
2021/03/29 06:57:42;;;;;;;7.00;4.87;;;11.00;67.80;;;;;;10550968;28;20223;-80
2021/03/29 07:02:47;;;;;;;4.13;3.37;;;11.20;66.70;;;;;;10548068;28;20199;-80
2021/03/29 07:07:49;;;;;;;5.83;4.27;;;11.40;66.40;;;;;;10562976;28;20223;-80
2021/03/29 07:12:53;;;;;;;5.10;3.83;;;11.50;66.60;;;;;;10546280;28;20239;-80
2021/03/29 07:17:56;;;;;;;7.77;4.63;;;11.70;67.10;;;;;;10551412;28;20268;-80
2021/03/29 07:22:57;;;;;;;8.80;4.77;;;11.90;67.40;;;;;;10545240;28;20200;-80
2021/03/29 07:28:00;;;;;;;6.33;5.00;;;12.00;66.80;;;;;;10563679;28;20566;-80
2021/03/29 07:33:03;;;;;;;7.73;4.80;;;12.10;67.10;;;;;;10529229;28;20261;-80
2021/03/29 07:38:05;;;;;;;7.27;5.70;;;12.30;66.50;;;;;;10524341;28;20701;-80
2021/03/29 07:43:10;;;;;;;5.77;4.40;;;12.60;67.10;;;;;;10543645;28;20219;-80
2021/03/29 07:48:31;;;;;;;7.80;4.97;;;12.80;66.20;;;;;;10570757;28;20233;-80
2021/03/29 07:53:43;;;;;;;6.17;3.93;;;13.00;65.50;;;;;;10543036;28;20242;-80
2021/03/29 07:58:46;;;;;;;8.17;5.23;;;13.30;65.80;;;;;;10557880;28;20203;-80
2021/03/29 08:03:53;;;;;;;8.80;4.97;;;13.50;65.60;;;;;;10568787;28;20224;-80
2021/03/29 08:08:55;;;;;;;6.23;4.43;;;13.60;64.70;;;;;;10533020;28;20199;-81
2021/03/29 08:13:57;;;;;;;7.20;5.33;;;13.80;65.20;;;;;;10564214;28;20223;-80
2021/03/29 08:19:15;;;;;;;6.20;5.30;;;14.20;65.10;;;;;;10533498;28;20219;-80
2021/03/29 08:24:18;;;;;;;5.33;4.30;;;14.50;64.80;;;;;;10575145;28;20218;-81
2021/03/29 08:29:28;;;;;;;9.20;4.53;;;14.90;63.30;;;;;;10519195;28;20204;-80
2021/03/29 08:34:32;;;;;;;7.80;4.47;;;15.00;62.00;;;;;;10550957;22;20683;-80
2021/03/29 08:39:36;;;;;;;6.67;4.20;;;15.00;62.10;;;;;;10568607;28;20232;-80
2021/03/29 08:44:40;;;;;;;5.70;4.27;;;14.80;62.70;;;;;;10561707;28;20207;-81
2021/03/29 08:49:49;;;;;;;8.73;5.10;;;14.80;60.80;;;;;;10545528;28;20195;-80
2021/03/29 08:54:56;;;;;;;6.63;3.93;;;14.70;61.80;;;;;;10563745;28;20227;-80
2021/03/29 09:00:00;;;;;;;6.27;4.40;;;14.80;59.30;;;;;;10585829;28;20228;-80
2021/03/29 09:05:06;;;;;;;5.90;4.37;;;14.90;60.90;;;;;;10567498;28;20219;-81
2021/03/29 09:10:20;;;;;;;8.57;5.50;;;15.10;61.70;;;;;;10588569;28;20192;-81
2021/03/29 09:15:25;;;;;;;4.10;2.90;;;15.40;58.80;;;;;;10588072;28;20233;-81
2021/03/29 09:20:30;;;;;;;3.00;2.50;;;15.60;58.80;;;;;;10569998;28;20195;-81
2021/03/29 09:25:35;;;;;;;2.63;2.10;;;15.70;59.20;;;;;;10586563;28;20211;-80
2021/03/29 09:30:36;;;;;;;4.93;2.37;;;15.80;57.50;;;;;;10568812;28;20199;-81
2021/03/29 09:35:39;;;;;;;6.97;2.53;;;15.80;57.00;;;;;;10564576;28;20299;-81
2021/03/29 09:40:42;;;;;;;4.37;2.67;;;16.10;55.10;;;;;;10554095;28;20221;-81
2021/03/29 09:45:43;;;;;;;5.50;2.60;;;16.30;55.50;;;;;;10577601;28;20207;-82
2021/03/29 09:50:47;;;;;;;6.53;2.90;;;16.50;56.50;;;;;;10555062;28;20207;-81
2021/03/29 09:55:50;;;;;;;6.57;2.83;;;16.80;56.50;;;;;;10564078;28;20216;-81
2021/03/29 10:00:53;;;;;;;3.13;2.80;;;17.00;55.40;;;;;;10562493;28;20183;-83
2021/03/29 10:05:57;;;;;;;3.93;3.10;;;17.30;55.70;;;;;;10560087;28;20239;-82
2021/03/29 10:11:04;;;;;;;4.30;2.93;;;17.50;55.00;;;;;;10550424;28;20195;-81
2021/03/29 10:16:19;;;;;;;4.23;2.53;;;17.60;52.70;;;;;;10572158;28;21029;-84
2021/03/29 10:21:22;;;;;;;2.33;2.13;;;17.40;52.00;;;;;;10539910;28;20678;-81
2021/03/29 10:26:29;;;;;;;2.30;2.20;;;17.10;53.30;;;;;;10546378;28;20280;-81
2021/03/29 10:31:32;;;;;;;5.47;2.87;;;16.80;53.00;;;;;;10566556;28;20198;-81
2021/03/29 10:36:35;;;;;;;3.40;3.10;;;16.60;51.10;;;;;;10562205;28;20658;-81
2021/03/29 10:41:36;;;;;;;5.00;3.67;;;16.40;54.80;;;;;;10529371;28;20252;-80
2021/03/29 10:46:42;;;;;;;3.93;2.83;;;16.20;55.10;;;;;;10544233;28;20648;-81
2021/03/29 10:51:44;;;;;;;4.00;2.90;;;16.20;55.70;;;;;;10556624;27;20264;-81
2021/03/29 10:56:46;;;;;;;5.97;3.20;;;16.20;51.20;;;;;;10533199;28;20234;-81
2021/03/29 11:01:55;;;;;;;2.90;2.50;;;16.20;54.60;;;;;;10568178;27;20199;-81
2021/03/29 11:06:58;;;;;;;2.97;2.70;;;16.20;55.00;;;;;;10566027;28;20227;-81
2021/03/29 11:12:00;;;;;;;4.30;3.00;;;16.10;55.90;;;;;;10578327;28;20286;-81
2021/03/29 11:17:02;;;;;;;2.50;2.30;;;16.10;55.50;;;;;;10540734;28;20223;-81
2021/03/29 11:22:05;;;;;;;6.73;3.17;;;16.00;54.90;;;;;;10565555;28;20740;-83
2021/03/29 11:27:07;;;;;;;2.97;2.60;;;16.00;55.70;;;;;;10555156;28;20713;-81
2021/03/29 11:32:09;;;;;;;2.70;2.50;;;16.00;53.90;;;;;;10530539;28;20203;-82
2021/03/29 11:37:12;;;;;;;3.37;3.13;;;16.00;53.90;;;;;;10551453;28;20250;-81
2021/03/29 11:42:13;;;;;;;3.23;2.70;;;16.00;52.30;;;;;;10550932;28;20258;-81
2021/03/29 11:47:15;;;;;;;2.33;2.13;;;16.10;52.20;;;;;;10558973;28;20222;-82
2021/03/29 11:52:18;;;;;;;2.67;2.13;;;16.20;53.30;;;;;;10574019;28;20195;-81
2021/03/29 11:57:19;;;;;;;4.63;2.50;;;16.20;51.30;;;;;;10563432;28;20298;-81
2021/03/29 12:02:25;;;;;;;2.23;2.10;;;16.30;50.90;;;;;;10547611;28;20222;-82
2021/03/29 12:07:34;;;;;;;4.13;2.43;;;16.40;47.60;;;;;;10541874;28;20272;-82
2021/03/29 12:12:36;;;;;;;2.47;2.10;;;16.40;49.70;;;;;;10570744;28;20330;-81
2021/03/29 12:17:39;;;;;;;2.40;2.20;;;16.50;47.10;;;;;;10565875;28;20261;-81
2021/03/29 12:22:45;;;;;;;3.00;2.33;;;16.60;49.50;;;;;;10571669;28;20718;-81
2021/03/29 12:27:47;;;;;;;3.93;2.80;;;16.60;49.30;;;;;;10573481;28;20268;-82
2021/03/29 12:32:49;;;;;;;3.00;2.40;;;16.50;48.50;;;;;;10541106;27;20188;-82
2021/03/29 12:37:53;;;;;;;2.20;1.83;;;16.50;51.30;;;;;;10532014;28;20238;-81
2021/03/29 12:43:05;;;;;;;2.80;2.60;;;16.40;52.00;;;;;;10573000;28;20211;-82
2021/03/29 12:48:11;;;;;;;2.57;2.20;;;16.40;48.70;;;;;;10563521;28;20242;-84
2021/03/29 12:53:15;;;;;;;3.20;2.47;;;16.40;47.80;;;;;;10538194;28;20195;-81
2021/03/29 12:58:18;;;;;;;3.27;2.13;;;16.50;46.70;;;;;;10577792;27;20709;-80
2021/03/29 13:03:24;;;;;;;2.53;2.10;;;16.70;45.80;;;;;;10537738;27;20778;-79
2021/03/29 13:08:28;;;;;;;2.50;2.27;;;16.90;47.30;;;;;;10550753;28;20262;-80
2021/03/29 13:13:32;;;;;;;3.00;2.40;;;16.90;46.60;;;;;;10548003;28;20680;-81
2021/03/29 13:18:33;;;;;;;2.60;2.40;;;16.90;49.00;;;;;;10568009;28;20214;-80
2021/03/29 13:23:36;;;;;;;1.87;1.77;;;16.80;49.00;;;;;;10567440;28;20203;-82
2021/03/29 13:28:38;;;;;;;2.43;2.20;;;16.70;48.70;;;;;;10554378;28;20211;-81
2021/03/29 13:33:40;;;;;;;2.43;2.23;;;16.70;50.40;;;;;;10553785;28;20188;-81
2021/03/29 13:38:43;;;;;;;3.20;2.10;;;16.50;51.90;;;;;;10558384;28;20216;-81
2021/03/29 13:43:46;;;;;;;2.33;2.13;;;16.40;52.90;;;;;;10543951;28;20219;-81
2021/03/29 13:48:52;;;;;;;3.43;1.90;;;16.30;51.50;;;;;;10561024;28;20222;-81
2021/03/29 13:53:57;;;;;;;3.17;2.47;;;16.40;48.60;;;;;;10564207;28;20201;-81
2021/03/29 13:58:59;;;;;;;2.27;1.97;;;16.70;47.30;;;;;;10565260;28;20222;-82
2021/03/29 14:04:02;;;;;;;3.00;2.20;;;16.90;47.70;;;;;;10565799;28;20225;-81
2021/03/29 14:09:06;;;;;;;5.07;2.50;;;17.00;49.90;;;;;;10583582;28;20252;-81
2021/03/29 14:14:08;;;;;;;2.40;2.20;;;17.10;50.00;;;;;;10571310;28;20183;-80
2021/03/29 14:19:10;;;;;;;3.10;2.50;;;17.00;49.90;;;;;;10546249;28;20199;-80
2021/03/29 14:24:14;;;;;;;2.60;2.20;;;17.10;46.70;;;;;;10548062;28;20588;-80
2021/03/29 14:29:16;;;;;;;2.90;2.20;;;17.30;47.90;;;;;;10547378;28;20647;-82
2021/03/29 14:34:21;;;;;;;3.80;2.60;;;17.40;48.10;;;;;;10564492;28;20630;-81
2021/03/29 14:39:31;;;;;;;2.50;1.97;;;17.40;49.50;;;;;;10525250;22;20232;-81
2021/03/29 14:44:34;;;;;;;2.43;2.07;;;17.40;49.10;;;;;;10518345;28;20214;-81
2021/03/29 14:49:37;;;;;;;4.10;1.90;;;17.30;50.80;;;;;;10506243;28;20655;-82
2021/03/29 14:54:41;;;;;;;2.53;1.97;;;17.20;52.50;;;;;;10503121;28;20201;-82
2021/03/29 14:59:42;;;;;;;3.00;2.10;;;17.20;49.10;;;;;;10505287;28;20250;-81
2021/03/29 15:04:46;;;;;;;3.63;2.20;;;17.40;52.60;;;;;;10487186;28;20220;-82
2021/03/29 15:09:50;;;;;;;3.27;2.10;;;17.20;52.50;;;;;;10502831;28;20189;-81
2021/03/29 15:14:52;;;;;;;4.87;2.37;;;17.10;51.10;;;;;;10505821;28;20199;-82
2021/03/29 15:19:53;;;;;;;3.60;2.23;;;17.10;51.70;;;;;;10495260;28;20202;-82
2021/03/29 15:24:56;;;;;;;4.03;2.00;;;17.20;49.10;;;;;;10468423;28;20216;-81
2021/03/29 15:29:57;;;;;;;3.37;1.90;;;17.30;51.00;;;;;;10496021;28;20275;-81
2021/03/29 15:34:59;;;;;;;2.67;2.00;;;17.20;51.10;;;;;;10495882;28;20259;-81
2021/03/29 15:40:02;;;;;;;2.23;2.00;;;17.10;54.30;;;;;;10497603;28;20634;-81
2021/03/29 15:45:04;;;;;;;2.10;2.00;;;16.90;53.50;;;;;;10496719;28;20224;-81
2021/03/29 15:50:07;;;;;;;3.60;2.40;;;16.90;51.40;;;;;;10489304;28;20686;-81
2021/03/29 15:55:12;;;;;;;2.60;2.23;;;16.90;52.40;;;;;;10471359;28;20212;-81
2021/03/29 16:00:16;;;;;;;2.40;2.20;;;16.90;51.60;;;;;;10496727;28;20216;-81
2021/03/29 16:05:19;;;;;;;3.50;2.30;;;16.90;53.70;;;;;;10494910;28;20283;-82
2021/03/29 16:10:22;;;;;;;2.20;2.07;;;16.80;52.20;;;;;;10498167;28;20211;-81
2021/03/29 16:15:24;;;;;;;2.90;2.37;;;16.80;52.80;;;;;;10501396;28;20231;-81
2021/03/29 16:20:25;;;;;;;3.47;2.53;;;16.70;54.90;;;;;;10451276;28;20193;-80
2021/03/29 16:25:29;;;;;;;2.40;2.20;;;16.60;53.30;;;;;;10468814;28;20692;-81
2021/03/29 16:30:31;;;;;;;2.50;2.30;;;16.60;54.00;;;;;;10466556;28;20201;-81
2021/03/29 16:35:32;;;;;;;2.80;2.60;;;16.50;55.30;;;;;;10467998;28;20225;-81
2021/03/29 16:40:35;;;;;;;2.53;2.30;;;16.50;56.60;;;;;;10480032;28;20543;-81
2021/03/29 16:45:40;;;;;;;5.13;2.33;;;16.30;57.10;;;;;;10498424;28;20216;-80
2021/03/29 16:50:42;;;;;;;5.53;2.20;;;16.20;57.70;;;;;;10498584;28;20231;-81
2021/03/29 16:55:45;;;;;;;3.83;2.50;;;16.10;54.80;;;;;;10497020;28;20217;-81
2021/03/29 17:00:46;;;;;;;2.90;2.70;;;16.00;57.50;;;;;;10496460;28;20224;-80
2021/03/29 17:05:48;;;;;;;4.03;2.40;;;15.90;57.00;;;;;;10482437;28;20317;-80
2021/03/29 17:10:52;;;;;;;2.47;2.37;;;15.90;57.80;;;;;;10490961;28;20197;-80
2021/03/29 17:15:54;;;;;;;2.30;2.10;;;15.80;53.30;;;;;;10462360;28;20639;-80
2021/03/29 17:20:55;;;;;;;4.57;3.60;;;16.00;53.00;;;;;;10479258;28;20204;-80
2021/03/29 17:25:58;;;;;;;2.43;2.23;;;16.30;52.60;;;;;;10471811;28;20260;-80
2021/03/29 17:31:00;;;;;;;3.90;2.67;;;16.40;53.40;;;;;;10442303;28;20221;-80
2021/03/29 17:36:02;;;;;;;2.50;2.30;;;16.50;52.90;;;;;;10457397;28;20225;-80
2021/03/29 17:41:04;;;;;;;2.90;2.70;;;16.50;52.80;;;;;;10448758;28;20205;-80
2021/03/29 17:46:06;;;;;;;4.87;3.53;;;16.50;52.60;;;;;;10446311;28;20254;-81
2021/03/29 17:51:08;;;;;;;2.90;2.70;;;16.40;52.20;;;;;;10457180;28;20665;-80
2021/03/29 17:56:13;;;;;;;3.50;2.93;;;16.30;51.90;;;;;;10495647;28;20706;-81
2021/03/29 18:01:15;;;;;;;3.73;3.43;;;16.10;51.90;;;;;;10493773;28;20280;-80
2021/03/29 18:06:16;;;;;;;3.70;3.23;;;16.00;51.60;;;;;;10454591;28;20696;-80
2021/03/29 18:11:19;;;;;;;5.63;2.73;;;15.80;51.40;;;;;;10493277;28;20227;-80
2021/03/29 18:16:21;;;;;;;3.47;3.17;;;15.70;51.80;;;;;;10495232;28;20209;-80
2021/03/29 18:21:24;;;;;;;3.60;2.97;;;15.50;51.00;;;;;;10462942;28;20564;-81
2021/03/29 18:26:27;;;;;;;5.37;3.03;;;15.40;50.90;;;;;;10461432;28;20642;-81
2021/03/29 18:31:29;;;;;;;17.87;11.27;;;15.20;51.50;;;;;;10458261;28;20661;-80
2021/03/29 18:36:33;;;;;;;16.23;11.03;;;15.10;51.10;;;;;;10467074;28;20242;-81
2021/03/29 18:41:36;;;;;;;5.87;3.60;;;15.00;51.00;;;;;;10464199;28;20200;-81
2021/03/29 18:46:38;;;;;;;3.37;3.07;;;14.90;50.80;;;;;;10459029;28;20233;-81
2021/03/29 18:51:40;;;;;;;3.43;3.20;;;14.80;50.80;;;;;;10433963;28;20881;-81
2021/03/29 18:56:57;;;;;;;4.87;4.40;;;14.60;50.90;;;;;;10478326;28;20235;-81
2021/03/29 19:02:01;;;;;;;12.30;8.90;;;14.50;51.20;;;;;;10463767;28;20723;-81
2021/03/29 19:07:03;;;;;;;7.53;4.30;;;14.40;50.80;;;;;;10460154;28;20240;-81
2021/03/29 19:12:09;;;;;;;3.80;3.50;;;14.30;50.90;;;;;;10448114;28;20213;-81
2021/03/29 19:17:11;;;;;;;4.10;3.70;;;14.20;51.00;;;;;;10428480;28;20312;-81
2021/03/29 19:22:12;;;;;;;3.97;2.70;;;14.10;51.10;;;;;;10448025;28;20208;-80
2021/03/29 19:27:19;;;;;;;2.97;2.60;;;14.00;51.20;;;;;;10451453;28;20259;-81
2021/03/29 19:32:20;;;;;;;4.37;3.03;;;14.00;51.30;;;;;;10454044;28;20770;-80
2021/03/29 19:37:22;;;;;;;3.90;3.60;;;13.90;51.30;;;;;;10470952;28;20232;-81
2021/03/29 19:42:26;;;;;;;3.90;2.90;;;13.80;51.50;;;;;;10425366;28;20254;-81
2021/03/29 19:47:28;;;;;;;2.63;2.43;;;13.80;51.80;;;;;;10465826;28;20232;-81
2021/03/29 19:52:30;;;;;;;4.87;2.90;;;13.80;52.00;;;;;;10439983;28;20235;-80
2021/03/29 19:57:32;;;;;;;2.93;2.70;;;13.80;52.10;;;;;;10452334;28;20248;-81
2021/03/29 20:02:34;;;;;;;2.93;2.37;;;13.70;52.00;;;;;;10498524;28;20213;-80
2021/03/29 20:07:40;;;;;;;8.10;2.77;;;13.70;52.40;;;;;;10491513;28;20286;-81
2021/03/29 20:12:43;;;;;;;2.33;2.23;;;13.60;51.90;;;;;;10500223;28;20208;-80
2021/03/29 20:17:46;;;;;;;2.77;2.57;;;13.60;52.10;;;;;;10502138;28;20220;-81
2021/03/29 20:22:48;;;;;;;3.43;2.23;;;13.50;52.20;;;;;;10486199;28;20204;-80
2021/03/29 20:27:50;;;;;;;2.30;2.20;;;13.50;51.40;;;;;;10503148;28;20220;-81
2021/03/29 20:32:52;;;;;;;3.00;2.80;;;13.40;51.80;;;;;;10493409;28;20511;-81
2021/03/29 20:37:54;;;;;;;4.27;2.90;;;13.30;50.90;;;;;;10491948;22;21007;-77
2021/03/29 20:42:56;;;;;;;3.27;2.13;;;13.30;51.10;;;;;;10479938;28;20230;-78
2021/03/29 20:47:58;;;;;;;5.70;2.57;;;13.20;51.00;;;;;;10478843;28;20263;-80
2021/03/29 20:53:00;;;;;;;2.40;2.20;;;13.20;51.30;;;;;;10480912;28;20262;-79
2021/03/29 20:58:03;;;;;;;5.30;2.33;;;13.10;51.50;;;;;;10482012;28;20631;-79
2021/03/29 21:03:05;;;;;;;5.87;2.23;;;13.10;51.40;;;;;;10497501;28;20203;-78
2021/03/29 21:08:07;;;;;;;3.27;2.30;;;13.10;51.00;;;;;;10474454;28;20232;-79
2021/03/29 21:13:09;;;;;;;2.93;2.63;;;13.00;51.40;;;;;;10477182;28;20204;-78
2021/03/29 21:18:11;;;;;;;4.30;2.40;;;13.00;51.70;;;;;;10475273;28;20605;-77
2021/03/29 21:23:13;;;;;;;3.10;2.80;;;12.90;51.10;;;;;;10475819;28;20238;-79
2021/03/29 21:28:15;;;;;;;2.97;2.77;;;12.90;51.50;;;;;;10495814;28;20432;-79
2021/03/29 21:33:19;;;;;;;3.23;2.87;;;12.80;51.30;;;;;;10474153;28;20303;-78
2021/03/29 21:38:20;;;;;;;3.07;2.37;;;12.70;52.00;;;;;;10495289;28;21023;-78
2021/03/29 21:43:24;;;;;;;2.90;2.70;;;12.70;52.50;;;;;;10476672;28;20223;-77
2021/03/29 21:48:26;;;;;;;3.20;2.90;;;12.60;53.00;;;;;;10489975;28;20233;-79
2021/03/29 21:53:28;;;;;;;2.40;2.20;;;12.60;53.50;;;;;;10478432;28;20721;-79
2021/03/29 21:58:30;;;;;;;2.57;2.37;;;12.50;54.10;;;;;;10497020;28;20226;-78
2021/03/29 22:03:32;;;;;;;2.10;2.00;;;12.50;54.00;;;;;;10463181;28;20220;-77
2021/03/29 22:08:33;;;;;;;2.17;2.03;;;12.40;54.10;;;;;;10479138;28;20216;-77
2021/03/29 22:13:36;;;;;;;4.73;2.33;;;12.30;53.90;;;;;;10464862;28;20197;-80
2021/03/29 22:18:38;;;;;;;3.27;2.27;;;12.30;53.30;;;;;;10462225;28;20244;-79
2021/03/29 22:23:40;;;;;;;6.17;2.70;;;12.30;54.30;;;;;;10500957;28;20643;-80
2021/03/29 22:28:46;;;;;;;2.80;2.60;;;12.20;54.30;;;;;;10496666;28;20687;-80
2021/03/29 22:33:51;;;;;;;6.00;2.60;;;12.10;54.20;;;;;;10495778;28;20193;-77
2021/03/29 22:44:10;;;;;;;4.27;3.87;;;12.00;55.90;;;;;;10455531;28;20223;-78
2021/03/29 22:49:12;;;;;;;3.40;3.10;;;11.90;56.10;;;;;;10471685;28;20277;-78
2021/03/29 22:54:15;;;;;;;3.17;2.90;;;11.90;57.30;;;;;;10489727;28;20667;-78
2021/03/29 22:59:17;;;;;;;4.77;3.60;;;11.80;57.70;;;;;;10472040;28;20220;-80
2021/03/29 23:04:19;;;;;;;3.70;3.20;;;11.80;58.60;;;;;;10472572;28;20605;-76
2021/03/29 23:09:21;;;;;;;4.47;3.70;;;11.70;59.20;;;;;;10472670;28;20224;-78
2021/03/29 23:14:23;;;;;;;3.60;3.30;;;11.70;59.80;;;;;;10489697;28;20267;-80
2021/03/29 23:19:25;;;;;;;3.50;3.20;;;11.60;60.30;;;;;;10488489;28;20303;-79
2021/03/29 23:24:27;;;;;;;5.17;3.40;;;11.60;61.30;;;;;;10454684;28;20220;-78
2021/03/29 23:29:29;;;;;;;3.67;3.37;;;11.50;61.90;;;;;;10491853;28;20263;-78
2021/03/29 23:34:31;;;;;;;7.23;3.37;;;11.50;62.30;;;;;;10483149;28;20249;-80
2021/03/29 23:39:33;;;;;;;7.57;3.67;;;11.40;62.50;;;;;;10487024;28;20224;-79
2021/03/29 23:44:35;;;;;;;4.53;3.60;;;11.40;62.50;;;;;;10486284;28;20224;-78
2021/03/29 23:49:37;;;;;;;3.63;3.33;;;11.30;63.40;;;;;;10505908;28;20220;-79
2021/03/29 23:54:39;;;;;;;4.33;3.33;;;11.40;62.80;;;;;;10485453;28;20204;-79
2021/03/29 23:59:41;;;;;;;3.70;3.40;;;11.40;62.70;;;;;;10508165;28;20418;-80
